sensor_id;sensor_type;location;lat;lon;timestamp;P1;durP1;ratioP1;P2;durP2;ratioP2
45836;SDS011;31548;51.420;-0.040;2024-02-21T00:02:08;15.98;;;1.33;;
45836;SDS011;31548;51.420;-0.040;2024-02-21T00:04:36;11.93;;;1.52;;
45836;SDS011;31548;51.420;-0.040;2024-02-21T00:07:05;8.82;;;1.20;;
45836;SDS011;31548;51.420;-0.040;2024-02-21T00:09:33;13.98;;;1.90;;
45836;SDS011;31548;51.420;-0.040;2024-02-21T00:12:01;18.13;;;1.70;;
45836;SDS011;31548;51.420;-0.040;2024-02-21T00:14:30;11.82;;;1.00;;
45836;SDS011;31548;51.420;-0.040;2024-02-21T00:16:57;17.00;;;1.60;;
45836;SDS011;31548;51.420;-0.040;2024-02-21T00:19:25;10.45;;;1.30;;
45836;SDS011;31548;51.420;-0.040;2024-02-21T00:21:52;11.32;;;1.27;;
45836;SDS011;31548;51.420;-0.040;2024-02-21T00:24:20;10.40;;;1.42;;
45836;SDS011;31548;51.420;-0.040;2024-02-21T00:26:47;12.73;;;1.67;;
45836;SDS011;31548;51.420;-0.040;2024-02-21T00:29:15;19.95;;;1.55;;
45836;SDS011;31548;51.420;-0.040;2024-02-21T00:31:42;9.00;;;1.35;;
45836;SDS011;31548;51.420;-0.040;2024-02-21T00:34:11;10.25;;;1.00;;
45836;SDS011;31548;51.420;-0.040;2024-02-21T00:36:40;10.48;;;0.98;;
45836;SDS011;31548;51.420;-0.040;2024-02-21T00:39:07;15.10;;;2.05;;
45836;SDS011;31548;51.420;-0.040;2024-02-21T00:41:35;8.70;;;0.95;;
45836;SDS011;31548;51.420;-0.040;2024-02-21T00:44:02;21.48;;;1.48;;
45836;SDS011;31548;51.420;-0.040;2024-02-21T00:46:32;12.80;;;2.15;;
45836;SDS011;31548;51.420;-0.040;2024-02-21T00:49:00;17.67;;;1.45;;
45836;SDS011;31548;51.420;-0.040;2024-02-21T00:51:27;10.80;;;1.10;;
45836;SDS011;31548;51.420;-0.040;2024-02-21T00:53:55;15.40;;;1.60;;
45836;SDS011;31548;51.420;-0.040;2024-02-21T00:56:22;11.70;;;1.45;;
45836;SDS011;31548;51.420;-0.040;2024-02-21T00:58:50;14.32;;;1.33;;
45836;SDS011;31548;51.420;-0.040;2024-02-21T01:01:23;12.30;;;1.65;;
45836;SDS011;31548;51.420;-0.040;2024-02-21T01:03:52;11.23;;;1.23;;
45836;SDS011;31548;51.420;-0.040;2024-02-21T01:06:25;14.20;;;2.22;;
45836;SDS011;31548;51.420;-0.040;2024-02-21T01:08:53;13.93;;;1.50;;
45836;SDS011;31548;51.420;-0.040;2024-02-21T01:11:20;12.25;;;1.33;;
45836;SDS011;31548;51.420;-0.040;2024-02-21T01:13:48;17.08;;;2.22;;
45836;SDS011;31548;51.420;-0.040;2024-02-21T01:16:16;17.70;;;2.25;;
45836;SDS011;31548;51.420;-0.040;2024-02-21T01:18:43;10.77;;;0.90;;
45836;SDS011;31548;51.420;-0.040;2024-02-21T01:21:11;14.30;;;1.00;;
45836;SDS011;31548;51.420;-0.040;2024-02-21T01:23:39;15.35;;;1.35;;
45836;SDS011;31548;51.420;-0.040;2024-02-21T01:26:06;17.65;;;1.20;;
45836;SDS011;31548;51.420;-0.040;2024-02-21T01:28:35;11.57;;;1.23;;
45836;SDS011;31548;51.420;-0.040;2024-02-21T01:31:02;14.63;;;2.38;;
45836;SDS011;31548;51.420;-0.040;2024-02-21T01:33:30;11.13;;;1.23;;
45836;SDS011;31548;51.420;-0.040;2024-02-21T01:36:02;17.00;;;1.08;;
45836;SDS011;31548;51.420;-0.040;2024-02-21T01:38:30;9.77;;;1.17;;
45836;SDS011;31548;51.420;-0.040;2024-02-21T01:40:59;13.65;;;1.33;;
45836;SDS011;31548;51.420;-0.040;2024-02-21T01:43:27;19.40;;;2.13;;
45836;SDS011;31548;51.420;-0.040;2024-02-21T01:45:55;15.40;;;1.08;;
45836;SDS011;31548;51.420;-0.040;2024-02-21T01:48:23;13.15;;;1.08;;
45836;SDS011;31548;51.420;-0.040;2024-02-21T01:50:52;19.23;;;1.20;;
45836;SDS011;31548;51.420;-0.040;2024-02-21T01:53:29;19.50;;;1.23;;
45836;SDS011;31548;51.420;-0.040;2024-02-21T01:55:59;10.48;;;0.85;;
45836;SDS011;31548;51.420;-0.040;2024-02-21T01:58:28;11.63;;;1.42;;
45836;SDS011;31548;51.420;-0.040;2024-02-21T02:00:57;18.13;;;1.58;;
45836;SDS011;31548;51.420;-0.040;2024-02-21T02:03:25;12.63;;;1.38;;
45836;SDS011;31548;51.420;-0.040;2024-02-21T02:05:53;13.50;;;1.25;;
45836;SDS011;31548;51.420;-0.040;2024-02-21T02:08:21;14.65;;;1.33;;
45836;SDS011;31548;51.420;-0.040;2024-02-21T02:10:49;21.80;;;1.58;;
45836;SDS011;31548;51.420;-0.040;2024-02-21T02:13:17;19.92;;;1.75;;
45836;SDS011;31548;51.420;-0.040;2024-02-21T02:15:46;19.35;;;1.70;;
45836;SDS011;31548;51.420;-0.040;2024-02-21T02:18:15;15.30;;;1.52;;
45836;SDS011;31548;51.420;-0.040;2024-02-21T02:20:44;26.10;;;1.83;;
45836;SDS011;31548;51.420;-0.040;2024-02-21T02:23:25;15.57;;;1.30;;
45836;SDS011;31548;51.420;-0.040;2024-02-21T02:25:59;15.68;;;2.22;;
45836;SDS011;31548;51.420;-0.040;2024-02-21T02:28:28;13.43;;;1.73;;
45836;SDS011;31548;51.420;-0.040;2024-02-21T02:30:55;17.05;;;1.50;;
45836;SDS011;31548;51.420;-0.040;2024-02-21T02:33:23;14.80;;;2.10;;
45836;SDS011;31548;51.420;-0.040;2024-02-21T02:35:51;13.65;;;1.38;;
45836;SDS011;31548;51.420;-0.040;2024-02-21T02:38:18;23.33;;;2.08;;
45836;SDS011;31548;51.420;-0.040;2024-02-21T02:40:46;14.50;;;1.33;;
45836;SDS011;31548;51.420;-0.040;2024-02-21T02:43:13;14.48;;;1.20;;
45836;SDS011;31548;51.420;-0.040;2024-02-21T02:45:41;26.92;;;2.15;;
45836;SDS011;31548;51.420;-0.040;2024-02-21T02:48:08;23.48;;;2.08;;
45836;SDS011;31548;51.420;-0.040;2024-02-21T02:50:36;9.48;;;1.30;;
45836;SDS011;31548;51.420;-0.040;2024-02-21T02:53:04;16.35;;;1.30;;
45836;SDS011;31548;51.420;-0.040;2024-02-21T02:55:31;17.40;;;1.40;;
45836;SDS011;31548;51.420;-0.040;2024-02-21T02:57:59;20.63;;;1.23;;
45836;SDS011;31548;51.420;-0.040;2024-02-21T03:00:27;15.75;;;1.83;;
45836;SDS011;31548;51.420;-0.040;2024-02-21T03:02:54;15.05;;;1.75;;
45836;SDS011;31548;51.420;-0.040;2024-02-21T03:05:22;16.85;;;1.70;;
45836;SDS011;31548;51.420;-0.040;2024-02-21T03:07:50;19.42;;;2.17;;
45836;SDS011;31548;51.420;-0.040;2024-02-21T03:10:17;14.25;;;1.48;;
45836;SDS011;31548;51.420;-0.040;2024-02-21T03:12:45;13.98;;;1.73;;
45836;SDS011;31548;51.420;-0.040;2024-02-21T03:15:13;18.75;;;2.25;;
45836;SDS011;31548;51.420;-0.040;2024-02-21T03:17:41;17.05;;;1.67;;
45836;SDS011;31548;51.420;-0.040;2024-02-21T03:20:09;13.00;;;1.58;;
45836;SDS011;31548;51.420;-0.040;2024-02-21T03:22:39;15.77;;;1.73;;
45836;SDS011;31548;51.420;-0.040;2024-02-21T03:25:08;11.90;;;1.45;;
45836;SDS011;31548;51.420;-0.040;2024-02-21T03:27:38;23.60;;;1.98;;
45836;SDS011;31548;51.420;-0.040;2024-02-21T03:30:05;22.98;;;1.63;;
45836;SDS011;31548;51.420;-0.040;2024-02-21T03:32:33;14.13;;;2.30;;
45836;SDS011;31548;51.420;-0.040;2024-02-21T03:35:01;10.73;;;1.35;;
45836;SDS011;31548;51.420;-0.040;2024-02-21T03:37:29;19.65;;;1.52;;
45836;SDS011;31548;51.420;-0.040;2024-02-21T03:39:57;8.73;;;1.15;;
45836;SDS011;31548;51.420;-0.040;2024-02-21T03:42:25;11.57;;;1.40;;
45836;SDS011;31548;51.420;-0.040;2024-02-21T03:44:52;15.45;;;1.15;;
45836;SDS011;31548;51.420;-0.040;2024-02-21T03:47:20;15.13;;;1.35;;
45836;SDS011;31548;51.420;-0.040;2024-02-21T03:49:48;19.55;;;1.70;;
45836;SDS011;31548;51.420;-0.040;2024-02-21T03:52:15;17.85;;;1.63;;
45836;SDS011;31548;51.420;-0.040;2024-02-21T03:54:43;15.32;;;1.00;;
45836;SDS011;31548;51.420;-0.040;2024-02-21T03:57:11;21.15;;;1.80;;
45836;SDS011;31548;51.420;-0.040;2024-02-21T03:59:39;25.58;;;1.40;;
45836;SDS011;31548;51.420;-0.040;2024-02-21T04:02:10;12.15;;;1.70;;
45836;SDS011;31548;51.420;-0.040;2024-02-21T04:04:42;13.73;;;1.27;;
45836;SDS011;31548;51.420;-0.040;2024-02-21T04:07:15;15.57;;;1.80;;
45836;SDS011;31548;51.420;-0.040;2024-02-21T04:09:43;9.35;;;0.90;;
45836;SDS011;31548;51.420;-0.040;2024-02-21T04:12:11;10.38;;;0.82;;
45836;SDS011;31548;51.420;-0.040;2024-02-21T04:14:38;10.82;;;1.15;;
45836;SDS011;31548;51.420;-0.040;2024-02-21T04:17:09;10.82;;;0.98;;
45836;SDS011;31548;51.420;-0.040;2024-02-21T04:19:37;15.27;;;1.20;;
45836;SDS011;31548;51.420;-0.040;2024-02-21T04:22:05;15.57;;;1.50;;
45836;SDS011;31548;51.420;-0.040;2024-02-21T04:24:33;17.58;;;2.88;;
45836;SDS011;31548;51.420;-0.040;2024-02-21T04:27:00;9.18;;;1.27;;
45836;SDS011;31548;51.420;-0.040;2024-02-21T04:29:28;13.40;;;1.08;;
45836;SDS011;31548;51.420;-0.040;2024-02-21T04:31:55;17.75;;;1.38;;
45836;SDS011;31548;51.420;-0.040;2024-02-21T04:34:23;6.38;;;0.80;;
45836;SDS011;31548;51.420;-0.040;2024-02-21T04:36:51;10.75;;;1.30;;
45836;SDS011;31548;51.420;-0.040;2024-02-21T04:39:18;8.32;;;1.00;;
45836;SDS011;31548;51.420;-0.040;2024-02-21T04:41:46;12.35;;;1.25;;
45836;SDS011;31548;51.420;-0.040;2024-02-21T04:44:13;14.23;;;1.40;;
45836;SDS011;31548;51.420;-0.040;2024-02-21T04:46:42;8.40;;;1.08;;
45836;SDS011;31548;51.420;-0.040;2024-02-21T04:49:10;17.85;;;1.02;;
45836;SDS011;31548;51.420;-0.040;2024-02-21T04:51:37;9.63;;;0.80;;
45836;SDS011;31548;51.420;-0.040;2024-02-21T04:54:07;7.45;;;0.90;;
45836;SDS011;31548;51.420;-0.040;2024-02-21T04:56:34;8.30;;;0.90;;
45836;SDS011;31548;51.420;-0.040;2024-02-21T04:59:02;15.50;;;1.13;;
45836;SDS011;31548;51.420;-0.040;2024-02-21T05:01:30;16.60;;;1.80;;
45836;SDS011;31548;51.420;-0.040;2024-02-21T05:03:58;11.75;;;0.85;;
45836;SDS011;31548;51.420;-0.040;2024-02-21T05:06:25;12.73;;;1.08;;
45836;SDS011;31548;51.420;-0.040;2024-02-21T05:08:53;7.20;;;1.00;;
45836;SDS011;31548;51.420;-0.040;2024-02-21T05:11:22;12.30;;;1.63;;
45836;SDS011;31548;51.420;-0.040;2024-02-21T05:13:50;9.02;;;0.90;;
45836;SDS011;31548;51.420;-0.040;2024-02-21T05:16:17;14.48;;;1.10;;
45836;SDS011;31548;51.420;-0.040;2024-02-21T05:18:46;11.90;;;1.20;;
45836;SDS011;31548;51.420;-0.040;2024-02-21T05:21:14;13.90;;;1.23;;
45836;SDS011;31548;51.420;-0.040;2024-02-21T05:23:41;7.65;;;0.73;;
45836;SDS011;31548;51.420;-0.040;2024-02-21T05:26:09;7.43;;;0.90;;
45836;SDS011;31548;51.420;-0.040;2024-02-21T05:28:36;5.88;;;0.80;;
45836;SDS011;31548;51.420;-0.040;2024-02-21T05:31:04;7.88;;;0.65;;
45836;SDS011;31548;51.420;-0.040;2024-02-21T05:33:32;10.68;;;0.98;;
45836;SDS011;31548;51.420;-0.040;2024-02-21T05:36:00;9.68;;;0.70;;
45836;SDS011;31548;51.420;-0.040;2024-02-21T05:38:28;9.90;;;1.13;;
45836;SDS011;31548;51.420;-0.040;2024-02-21T05:40:55;10.00;;;1.02;;
45836;SDS011;31548;51.420;-0.040;2024-02-21T05:43:24;17.40;;;1.13;;
45836;SDS011;31548;51.420;-0.040;2024-02-21T05:45:51;9.10;;;0.82;;
45836;SDS011;31548;51.420;-0.040;2024-02-21T05:48:19;5.70;;;0.70;;
45836;SDS011;31548;51.420;-0.040;2024-02-21T05:50:47;12.57;;;1.15;;
45836;SDS011;31548;51.420;-0.040;2024-02-21T05:53:15;9.82;;;0.98;;
45836;SDS011;31548;51.420;-0.040;2024-02-21T05:55:43;10.60;;;0.70;;
45836;SDS011;31548;51.420;-0.040;2024-02-21T05:58:11;7.32;;;0.82;;
45836;SDS011;31548;51.420;-0.040;2024-02-21T06:00:40;11.38;;;1.50;;
45836;SDS011;31548;51.420;-0.040;2024-02-21T06:03:08;16.38;;;1.40;;
45836;SDS011;31548;51.420;-0.040;2024-02-21T06:05:36;9.43;;;0.70;;
45836;SDS011;31548;51.420;-0.040;2024-02-21T06:08:05;6.30;;;0.70;;
45836;SDS011;31548;51.420;-0.040;2024-02-21T06:10:33;8.65;;;1.17;;
45836;SDS011;31548;51.420;-0.040;2024-02-21T06:13:01;7.35;;;0.70;;
45836;SDS011;31548;51.420;-0.040;2024-02-21T06:15:29;7.78;;;0.60;;
45836;SDS011;31548;51.420;-0.040;2024-02-21T06:17:56;5.07;;;0.60;;
45836;SDS011;31548;51.420;-0.040;2024-02-21T06:20:27;7.10;;;0.98;;
45836;SDS011;31548;51.420;-0.040;2024-02-21T06:22:55;8.15;;;0.85;;
45836;SDS011;31548;51.420;-0.040;2024-02-21T06:25:23;4.80;;;0.70;;
45836;SDS011;31548;51.420;-0.040;2024-02-21T06:27:51;5.53;;;0.50;;
45836;SDS011;31548;51.420;-0.040;2024-02-21T06:30:18;2.25;;;0.52;;
45836;SDS011;31548;51.420;-0.040;2024-02-21T06:32:46;1.42;;;0.40;;
45836;SDS011;31548;51.420;-0.040;2024-02-21T06:35:13;5.63;;;0.50;;
45836;SDS011;31548;51.420;-0.040;2024-02-21T06:37:41;7.35;;;0.75;;
45836;SDS011;31548;51.420;-0.040;2024-02-21T06:40:09;6.07;;;0.30;;
45836;SDS011;31548;51.420;-0.040;2024-02-21T06:42:36;4.68;;;0.30;;
45836;SDS011;31548;51.420;-0.040;2024-02-21T06:45:04;1.85;;;0.40;;
45836;SDS011;31548;51.420;-0.040;2024-02-21T06:47:32;3.83;;;0.38;;
45836;SDS011;31548;51.420;-0.040;2024-02-21T06:50:00;4.90;;;0.50;;
45836;SDS011;31548;51.420;-0.040;2024-02-21T06:52:27;3.70;;;0.77;;
45836;SDS011;31548;51.420;-0.040;2024-02-21T06:54:55;2.45;;;0.40;;
45836;SDS011;31548;51.420;-0.040;2024-02-21T06:57:25;3.38;;;0.65;;
45836;SDS011;31548;51.420;-0.040;2024-02-21T06:59:53;3.85;;;0.40;;
45836;SDS011;31548;51.420;-0.040;2024-02-21T07:02:20;4.45;;;0.35;;
45836;SDS011;31548;51.420;-0.040;2024-02-21T07:04:48;2.17;;;0.40;;
45836;SDS011;31548;51.420;-0.040;2024-02-21T07:07:16;3.45;;;0.40;;
45836;SDS011;31548;51.420;-0.040;2024-02-21T07:09:44;2.95;;;0.30;;
45836;SDS011;31548;51.420;-0.040;2024-02-21T07:12:15;4.38;;;0.40;;
45836;SDS011;31548;51.420;-0.040;2024-02-21T07:14:42;1.35;;;0.35;;
45836;SDS011;31548;51.420;-0.040;2024-02-21T07:17:11;3.80;;;0.50;;
45836;SDS011;31548;51.420;-0.040;2024-02-21T07:19:39;1.90;;;0.40;;
45836;SDS011;31548;51.420;-0.040;2024-02-21T07:22:06;2.50;;;0.55;;
45836;SDS011;31548;51.420;-0.040;2024-02-21T07:24:34;1.42;;;0.22;;
45836;SDS011;31548;51.420;-0.040;2024-02-21T07:27:02;6.38;;;0.75;;
45836;SDS011;31548;51.420;-0.040;2024-02-21T07:29:31;1.05;;;0.40;;
45836;SDS011;31548;51.420;-0.040;2024-02-21T07:31:59;5.20;;;0.68;;
45836;SDS011;31548;51.420;-0.040;2024-02-21T07:34:27;1.98;;;0.30;;
45836;SDS011;31548;51.420;-0.040;2024-02-21T07:36:55;2.50;;;0.50;;
45836;SDS011;31548;51.420;-0.040;2024-02-21T07:39:23;2.75;;;0.65;;
45836;SDS011;31548;51.420;-0.040;2024-02-21T07:41:51;2.15;;;0.40;;
45836;SDS011;31548;51.420;-0.040;2024-02-21T07:44:20;3.10;;;0.40;;
45836;SDS011;31548;51.420;-0.040;2024-02-21T07:46:48;5.13;;;0.50;;
45836;SDS011;31548;51.420;-0.040;2024-02-21T07:49:15;3.47;;;0.60;;
45836;SDS011;31548;51.420;-0.040;2024-02-21T07:51:43;4.57;;;0.50;;
45836;SDS011;31548;51.420;-0.040;2024-02-21T07:54:11;5.30;;;0.90;;
45836;SDS011;31548;51.420;-0.040;2024-02-21T07:56:46;6.97;;;0.70;;
45836;SDS011;31548;51.420;-0.040;2024-02-21T07:59:14;5.53;;;0.60;;
45836;SDS011;31548;51.420;-0.040;2024-02-21T08:01:42;7.47;;;0.63;;
45836;SDS011;31548;51.420;-0.040;2024-02-21T08:04:11;6.65;;;0.70;;
45836;SDS011;31548;51.420;-0.040;2024-02-21T08:06:39;2.80;;;0.60;;
45836;SDS011;31548;51.420;-0.040;2024-02-21T08:09:07;11.70;;;0.93;;
45836;SDS011;31548;51.420;-0.040;2024-02-21T08:11:38;6.18;;;0.70;;
45836;SDS011;31548;51.420;-0.040;2024-02-21T08:14:08;4.90;;;0.80;;
45836;SDS011;31548;51.420;-0.040;2024-02-21T08:16:36;2.55;;;0.55;;
45836;SDS011;31548;51.420;-0.040;2024-02-21T08:19:04;7.68;;;0.70;;
45836;SDS011;31548;51.420;-0.040;2024-02-21T08:21:31;6.25;;;1.17;;
45836;SDS011;31548;51.420;-0.040;2024-02-21T08:23:59;5.93;;;0.70;;
45836;SDS011;31548;51.420;-0.040;2024-02-21T08:26:26;10.05;;;1.20;;
45836;SDS011;31548;51.420;-0.040;2024-02-21T08:28:57;3.53;;;0.60;;
45836;SDS011;31548;51.420;-0.040;2024-02-21T08:31:27;5.60;;;0.95;;
45836;SDS011;31548;51.420;-0.040;2024-02-21T08:36:30;6.20;;;0.77;;
45836;SDS011;31548;51.420;-0.040;2024-02-21T08:38:59;7.97;;;0.82;;
45836;SDS011;31548;51.420;-0.040;2024-02-21T08:41:27;7.88;;;0.55;;
45836;SDS011;31548;51.420;-0.040;2024-02-21T08:44:15;7.10;;;0.60;;
45836;SDS011;31548;51.420;-0.040;2024-02-21T08:46:42;9.50;;;1.17;;
45836;SDS011;31548;51.420;-0.040;2024-02-21T08:49:10;7.30;;;1.15;;
45836;SDS011;31548;51.420;-0.040;2024-02-21T08:51:38;6.68;;;0.75;;
45836;SDS011;31548;51.420;-0.040;2024-02-21T08:54:05;10.95;;;0.70;;
45836;SDS011;31548;51.420;-0.040;2024-02-21T08:56:33;6.95;;;0.50;;
45836;SDS011;31548;51.420;-0.040;2024-02-21T08:59:01;11.77;;;1.25;;
45836;SDS011;31548;51.420;-0.040;2024-02-21T09:01:29;6.47;;;0.70;;
45836;SDS011;31548;51.420;-0.040;2024-02-21T09:03:56;5.53;;;0.70;;
45836;SDS011;31548;51.420;-0.040;2024-02-21T09:06:25;7.15;;;0.70;;
45836;SDS011;31548;51.420;-0.040;2024-02-21T09:08:56;6.95;;;0.93;;
45836;SDS011;31548;51.420;-0.040;2024-02-21T09:11:25;2.78;;;0.40;;
45836;SDS011;31548;51.420;-0.040;2024-02-21T09:13:55;4.95;;;0.50;;
45836;SDS011;31548;51.420;-0.040;2024-02-21T09:16:22;5.55;;;0.40;;
45836;SDS011;31548;51.420;-0.040;2024-02-21T09:18:50;2.25;;;0.40;;
45836;SDS011;31548;51.420;-0.040;2024-02-21T09:21:19;8.48;;;0.52;;
45836;SDS011;31548;51.420;-0.040;2024-02-21T09:23:47;3.47;;;0.40;;
45836;SDS011;31548;51.420;-0.040;2024-02-21T09:26:14;2.97;;;0.40;;
45836;SDS011;31548;51.420;-0.040;2024-02-21T09:28:43;7.43;;;0.60;;
45836;SDS011;31548;51.420;-0.040;2024-02-21T09:31:12;2.75;;;0.40;;
45836;SDS011;31548;51.420;-0.040;2024-02-21T09:33:39;5.75;;;0.65;;
45836;SDS011;31548;51.420;-0.040;2024-02-21T09:36:08;6.72;;;0.75;;
45836;SDS011;31548;51.420;-0.040;2024-02-21T09:38:36;7.38;;;0.60;;
45836;SDS011;31548;51.420;-0.040;2024-02-21T09:41:06;5.45;;;0.77;;
45836;SDS011;31548;51.420;-0.040;2024-02-21T09:43:51;8.13;;;1.20;;
45836;SDS011;31548;51.420;-0.040;2024-02-21T09:46:39;8.05;;;0.60;;
45836;SDS011;31548;51.420;-0.040;2024-02-21T09:49:31;4.25;;;0.60;;
45836;SDS011;31548;51.420;-0.040;2024-02-21T09:52:05;9.80;;;0.52;;
45836;SDS011;31548;51.420;-0.040;2024-02-21T09:54:34;1.70;;;0.35;;
45836;SDS011;31548;51.420;-0.040;2024-02-21T09:57:02;3.72;;;0.47;;
45836;SDS011;31548;51.420;-0.040;2024-02-21T09:59:33;8.25;;;0.50;;
45836;SDS011;31548;51.420;-0.040;2024-02-21T10:02:01;5.65;;;0.57;;
45836;SDS011;31548;51.420;-0.040;2024-02-21T10:04:30;7.65;;;0.70;;
45836;SDS011;31548;51.420;-0.040;2024-02-21T10:06:59;9.02;;;0.52;;
45836;SDS011;31548;51.420;-0.040;2024-02-21T10:09:29;3.28;;;0.40;;
45836;SDS011;31548;51.420;-0.040;2024-02-21T10:12:07;7.22;;;0.80;;
45836;SDS011;31548;51.420;-0.040;2024-02-21T10:14:40;5.25;;;0.57;;
45836;SDS011;31548;51.420;-0.040;2024-02-21T10:17:08;5.82;;;0.40;;
45836;SDS011;31548;51.420;-0.040;2024-02-21T10:19:42;9.20;;;0.50;;
45836;SDS011;31548;51.420;-0.040;2024-02-21T10:22:10;3.28;;;0.40;;
45836;SDS011;31548;51.420;-0.040;2024-02-21T10:24:37;5.05;;;0.70;;
45836;SDS011;31548;51.420;-0.040;2024-02-21T10:27:09;2.10;;;0.60;;
45836;SDS011;31548;51.420;-0.040;2024-02-21T10:29:40;2.22;;;0.30;;
45836;SDS011;31548;51.420;-0.040;2024-02-21T10:34:39;8.30;;;0.38;;
45836;SDS011;31548;51.420;-0.040;2024-02-21T10:37:13;1.23;;;0.30;;
45836;SDS011;31548;51.420;-0.040;2024-02-21T10:39:42;4.47;;;0.40;;
45836;SDS011;31548;51.420;-0.040;2024-02-21T10:42:11;4.85;;;0.40;;
45836;SDS011;31548;51.420;-0.040;2024-02-21T10:44:40;1.95;;;0.40;;
45836;SDS011;31548;51.420;-0.040;2024-02-21T10:47:11;7.82;;;0.30;;
45836;SDS011;31548;51.420;-0.040;2024-02-21T10:49:41;5.40;;;0.30;;
45836;SDS011;31548;51.420;-0.040;2024-02-21T10:55:16;4.53;;;0.35;;
45836;SDS011;31548;51.420;-0.040;2024-02-21T10:57:50;2.80;;;0.50;;
45836;SDS011;31548;51.420;-0.040;2024-02-21T11:00:20;2.35;;;0.55;;
45836;SDS011;31548;51.420;-0.040;2024-02-21T11:02:49;2.17;;;0.30;;
45836;SDS011;31548;51.420;-0.040;2024-02-21T11:05:17;2.45;;;0.30;;
45836;SDS011;31548;51.420;-0.040;2024-02-21T11:07:45;6.95;;;0.30;;
45836;SDS011;31548;51.420;-0.040;2024-02-21T11:10:23;2.35;;;0.30;;
45836;SDS011;31548;51.420;-0.040;2024-02-21T11:13:09;1.95;;;0.20;;
45836;SDS011;31548;51.420;-0.040;2024-02-21T11:15:38;3.70;;;0.28;;
45836;SDS011;31548;51.420;-0.040;2024-02-21T11:18:06;1.05;;;0.30;;
45836;SDS011;31548;51.420;-0.040;2024-02-21T11:20:34;2.60;;;0.30;;
45836;SDS011;31548;51.420;-0.040;2024-02-21T11:23:02;4.15;;;0.63;;
45836;SDS011;31548;51.420;-0.040;2024-02-21T11:25:31;0.90;;;0.20;;
45836;SDS011;31548;51.420;-0.040;2024-02-21T11:28:01;3.47;;;0.22;;
45836;SDS011;31548;51.420;-0.040;2024-02-21T11:30:30;1.58;;;0.25;;
45836;SDS011;31548;51.420;-0.040;2024-02-21T11:33:00;1.42;;;0.20;;
45836;SDS011;31548;51.420;-0.040;2024-02-21T11:35:33;0.73;;;0.30;;
45836;SDS011;31548;51.420;-0.040;2024-02-21T11:38:11;1.52;;;0.20;;
45836;SDS011;31548;51.420;-0.040;2024-02-21T11:40:44;2.30;;;0.50;;
45836;SDS011;31548;51.420;-0.040;2024-02-21T11:43:14;2.13;;;0.30;;
45836;SDS011;31548;51.420;-0.040;2024-02-21T11:45:42;4.15;;;0.20;;
45836;SDS011;31548;51.420;-0.040;2024-02-21T11:48:10;2.47;;;0.20;;
45836;SDS011;31548;51.420;-0.040;2024-02-21T11:50:37;2.22;;;0.20;;
45836;SDS011;31548;51.420;-0.040;2024-02-21T11:53:06;1.13;;;0.10;;
45836;SDS011;31548;51.420;-0.040;2024-02-21T11:55:34;3.40;;;0.20;;
45836;SDS011;31548;51.420;-0.040;2024-02-21T11:58:02;2.67;;;0.20;;
45836;SDS011;31548;51.420;-0.040;2024-02-21T12:00:31;0.40;;;0.40;;
45836;SDS011;31548;51.420;-0.040;2024-02-21T12:02:59;2.20;;;0.30;;
45836;SDS011;31548;51.420;-0.040;2024-02-21T12:05:29;2.08;;;0.40;;
45836;SDS011;31548;51.420;-0.040;2024-02-21T12:07:59;1.45;;;0.30;;
45836;SDS011;31548;51.420;-0.040;2024-02-21T12:10:27;1.02;;;0.10;;
45836;SDS011;31548;51.420;-0.040;2024-02-21T12:13:08;0.40;;;0.13;;
45836;SDS011;31548;51.420;-0.040;2024-02-21T12:15:38;4.97;;;0.22;;
45836;SDS011;31548;51.420;-0.040;2024-02-21T12:18:06;0.82;;;0.25;;
45836;SDS011;31548;51.420;-0.040;2024-02-21T12:20:34;0.43;;;0.20;;
45836;SDS011;31548;51.420;-0.040;2024-02-21T12:23:03;4.20;;;0.20;;
45836;SDS011;31548;51.420;-0.040;2024-02-21T12:25:30;0.32;;;0.20;;
45836;SDS011;31548;51.420;-0.040;2024-02-21T12:27:58;2.78;;;0.10;;
45836;SDS011;31548;51.420;-0.040;2024-02-21T12:30:27;1.35;;;0.13;;
45836;SDS011;31548;51.420;-0.040;2024-02-21T12:32:55;1.15;;;0.20;;
45836;SDS011;31548;51.420;-0.040;2024-02-21T12:35:23;1.02;;;0.20;;
45836;SDS011;31548;51.420;-0.040;2024-02-21T12:37:50;1.17;;;0.20;;
45836;SDS011;31548;51.420;-0.040;2024-02-21T12:40:18;0.38;;;0.10;;
45836;SDS011;31548;51.420;-0.040;2024-02-21T12:42:45;3.75;;;0.20;;
45836;SDS011;31548;51.420;-0.040;2024-02-21T12:45:31;0.75;;;0.17;;
45836;SDS011;31548;51.420;-0.040;2024-02-21T12:48:23;1.20;;;0.20;;
45836;SDS011;31548;51.420;-0.040;2024-02-21T12:50:51;1.88;;;0.30;;
45836;SDS011;31548;51.420;-0.040;2024-02-21T12:53:19;1.73;;;0.20;;
45836;SDS011;31548;51.420;-0.040;2024-02-21T12:55:58;1.58;;;0.20;;
45836;SDS011;31548;51.420;-0.040;2024-02-21T12:58:27;2.78;;;0.22;;
45836;SDS011;31548;51.420;-0.040;2024-02-21T13:00:56;0.10;;;0.10;;
45836;SDS011;31548;51.420;-0.040;2024-02-21T13:03:23;2.15;;;0.20;;
45836;SDS011;31548;51.420;-0.040;2024-02-21T13:05:51;0.30;;;0.10;;
45836;SDS011;31548;51.420;-0.040;2024-02-21T13:08:18;1.58;;;0.13;;
45836;SDS011;31548;51.420;-0.040;2024-02-21T13:29:56;2.60;;;0.10;;
45836;SDS011;31548;51.420;-0.040;2024-02-21T13:32:25;2.65;;;0.35;;
45836;SDS011;31548;51.420;-0.040;2024-02-21T13:34:53;3.20;;;0.30;;
45836;SDS011;31548;51.420;-0.040;2024-02-21T13:37:21;0.68;;;0.20;;
45836;SDS011;31548;51.420;-0.040;2024-02-21T13:39:49;0.80;;;0.10;;
45836;SDS011;31548;51.420;-0.040;2024-02-21T13:42:16;0.55;;;0.20;;
45836;SDS011;31548;51.420;-0.040;2024-02-21T13:52:52;1.08;;;0.10;;
45836;SDS011;31548;51.420;-0.040;2024-02-21T13:55:20;0.88;;;0.10;;
45836;SDS011;31548;51.420;-0.040;2024-02-21T13:57:49;2.25;;;0.30;;
45836;SDS011;31548;51.420;-0.040;2024-02-21T14:00:16;1.73;;;0.20;;
45836;SDS011;31548;51.420;-0.040;2024-02-21T14:02:45;2.22;;;0.20;;
45836;SDS011;31548;51.420;-0.040;2024-02-21T14:05:13;2.78;;;0.17;;
45836;SDS011;31548;51.420;-0.040;2024-02-21T14:07:41;4.80;;;0.30;;
45836;SDS011;31548;51.420;-0.040;2024-02-21T14:10:09;1.05;;;0.10;;
45836;SDS011;31548;51.420;-0.040;2024-02-21T14:12:36;4.20;;;0.70;;
45836;SDS011;31548;51.420;-0.040;2024-02-21T14:15:05;1.98;;;0.20;;
45836;SDS011;31548;51.420;-0.040;2024-02-21T14:17:33;0.55;;;0.17;;
45836;SDS011;31548;51.420;-0.040;2024-02-21T14:20:01;0.47;;;0.20;;
45836;SDS011;31548;51.420;-0.040;2024-02-21T14:22:34;2.13;;;0.30;;
45836;SDS011;31548;51.420;-0.040;2024-02-21T14:25:09;0.55;;;0.10;;
45836;SDS011;31548;51.420;-0.040;2024-02-21T14:27:36;1.80;;;0.30;;
45836;SDS011;31548;51.420;-0.040;2024-02-21T14:30:04;1.35;;;0.40;;
45836;SDS011;31548;51.420;-0.040;2024-02-21T14:32:34;1.83;;;0.30;;
45836;SDS011;31548;51.420;-0.040;2024-02-21T14:35:02;3.08;;;0.40;;
45836;SDS011;31548;51.420;-0.040;2024-02-21T14:37:34;4.15;;;0.50;;
45836;SDS011;31548;51.420;-0.040;2024-02-21T14:40:05;3.42;;;0.32;;
45836;SDS011;31548;51.420;-0.040;2024-02-21T14:42:33;1.70;;;0.20;;
45836;SDS011;31548;51.420;-0.040;2024-02-21T14:45:01;2.10;;;0.30;;
45836;SDS011;31548;51.420;-0.040;2024-02-21T14:47:32;1.55;;;0.20;;
45836;SDS011;31548;51.420;-0.040;2024-02-21T14:50:01;5.88;;;0.20;;
45836;SDS011;31548;51.420;-0.040;2024-02-21T14:52:31;1.67;;;0.20;;
45836;SDS011;31548;51.420;-0.040;2024-02-21T14:55:01;1.40;;;0.28;;
45836;SDS011;31548;51.420;-0.040;2024-02-21T14:57:29;0.20;;;0.13;;
45836;SDS011;31548;51.420;-0.040;2024-02-21T14:59:57;0.47;;;0.20;;
45836;SDS011;31548;51.420;-0.040;2024-02-21T15:02:27;1.55;;;0.30;;
45836;SDS011;31548;51.420;-0.040;2024-02-21T15:04:55;2.53;;;0.47;;
45836;SDS011;31548;51.420;-0.040;2024-02-21T15:07:23;3.83;;;0.70;;
45836;SDS011;31548;51.420;-0.040;2024-02-21T15:09:52;1.92;;;0.60;;
45836;SDS011;31548;51.420;-0.040;2024-02-21T15:12:20;2.08;;;0.75;;
45836;SDS011;31548;51.420;-0.040;2024-02-21T15:14:49;0.95;;;0.30;;
45836;SDS011;31548;51.420;-0.040;2024-02-21T15:17:20;2.15;;;0.65;;